createdAt,value
2018-06-09T00:00:28.652Z,11.50
2018-06-09T00:02:56.950Z,12.37
2018-06-09T00:05:25.274Z,12.23
2018-06-09T00:07:53.653Z,10.73
2018-06-09T00:10:21.934Z,12.80
2018-06-09T00:12:50.261Z,12.47
2018-06-09T00:15:18.627Z,12.80
2018-06-09T00:17:47.029Z,12.50
2018-06-09T00:20:15.365Z,13.47
2018-06-09T00:22:43.714Z,14.20
2018-06-09T00:25:12.018Z,14.27
2018-06-09T00:27:40.335Z,14.47
2018-06-09T00:30:08.698Z,14.43
2018-06-09T00:32:36.994Z,14.57
2018-06-09T00:35:05.307Z,16.07
2018-06-09T00:37:33.666Z,14.00
2018-06-09T00:40:02.044Z,13.37
2018-06-09T00:42:30.625Z,11.77
2018-06-09T00:44:58.984Z,11.73
2018-06-09T00:47:27.282Z,12.17
2018-06-09T00:49:55.582Z,12.47
2018-06-09T00:52:23.979Z,12.00
2018-06-09T00:54:52.725Z,11.60
2018-06-09T00:57:21.025Z,12.40
2018-06-09T00:59:49.477Z,11.83
2018-06-09T01:02:17.828Z,13.40
2018-06-09T01:04:46.170Z,13.10
2018-06-09T01:07:14.547Z,15.17
2018-06-09T01:09:42.878Z,14.60
2018-06-09T01:12:11.195Z,14.27
2018-06-09T01:14:39.602Z,14.47
2018-06-09T01:17:07.959Z,14.73
2018-06-09T01:19:36.398Z,14.73
2018-06-09T01:22:04.894Z,15.37
2018-06-09T01:24:33.245Z,14.17
2018-06-09T01:27:01.602Z,15.57
2018-06-09T01:29:29.949Z,14.47
2018-06-09T01:31:58.265Z,14.27
2018-06-09T01:34:26.751Z,14.87
2018-06-09T01:36:55.089Z,13.10
2018-06-09T01:39:23.469Z,14.20
2018-06-09T01:41:51.826Z,15.03
2018-06-09T01:44:20.196Z,14.70
2018-06-09T01:46:48.505Z,15.70
2018-06-09T01:49:16.862Z,16.10
2018-06-09T01:51:45.246Z,16.43
2018-06-09T01:54:13.657Z,17.60
2018-06-09T01:56:42.076Z,18.57
2018-06-09T01:59:10.399Z,17.37
2018-06-09T02:01:38.810Z,17.57
2018-06-09T02:04:07.134Z,19.30
2018-06-09T02:06:35.486Z,18.60
2018-06-09T02:09:05.840Z,16.13
2018-06-09T02:11:34.149Z,18.57
2018-06-09T02:14:02.468Z,16.60
2018-06-09T02:16:30.845Z,18.87
2018-06-09T02:18:59.166Z,21.40
2018-06-09T02:21:27.578Z,22.77
2018-06-09T02:23:55.627Z,22.57
2018-06-09T02:26:24.075Z,23.03
2018-06-09T02:28:52.341Z,22.07
2018-06-09T02:31:20.689Z,22.50
2018-06-09T02:33:48.723Z,14.10
2018-06-09T02:36:17.036Z,15.00
2018-06-09T02:38:45.358Z,15.33
2018-06-09T02:41:13.772Z,16.47
2018-06-09T02:43:42.033Z,16.07
2018-06-09T02:46:10.322Z,14.60
2018-06-09T02:48:38.678Z,14.57
2018-06-09T02:51:07.029Z,15.63
2018-06-09T02:53:35.297Z,15.00
2018-06-09T02:56:03.729Z,14.20
2018-06-09T02:58:32.017Z,15.63
2018-06-09T03:01:00.294Z,15.13
2018-06-09T03:03:28.627Z,15.43
2018-06-09T03:05:56.902Z,15.10
2018-06-09T03:08:25.228Z,15.70
2018-06-09T03:10:53.570Z,17.57
2018-06-09T03:13:21.850Z,17.07
2018-06-09T03:15:50.166Z,16.10
2018-06-09T03:18:18.465Z,15.57
2018-06-09T03:20:46.788Z,16.40
2018-06-09T03:23:15.099Z,16.43
2018-06-09T03:25:43.425Z,16.17
2018-06-09T03:28:11.680Z,16.33
2018-06-09T03:30:40.092Z,15.00
2018-06-09T03:33:08.412Z,17.20
2018-06-09T03:35:36.732Z,15.87
2018-06-09T03:38:05.036Z,12.90
2018-06-09T03:40:33.320Z,13.87
2018-06-09T03:43:01.674Z,16.97
2018-06-09T03:45:30.028Z,14.37
2018-06-09T03:47:58.351Z,13.30
2018-06-09T03:50:26.657Z,12.87
2018-06-09T03:52:54.983Z,12.60
2018-06-09T03:55:23.325Z,13.17
2018-06-09T03:57:51.655Z,13.90
2018-06-09T04:00:19.920Z,12.87
2018-06-09T04:02:48.197Z,15.47
2018-06-09T04:05:16.516Z,18.00
2018-06-09T04:07:44.844Z,19.73
2018-06-09T04:10:13.159Z,16.93
2018-06-09T04:12:41.465Z,17.60
2018-06-09T04:15:09.808Z,15.73
2018-06-09T04:17:38.132Z,14.90
2018-06-09T04:20:06.429Z,15.00
2018-06-09T04:22:34.760Z,17.80
2018-06-09T04:25:03.064Z,14.63
2018-06-09T04:27:31.590Z,16.57
2018-06-09T04:30:00.205Z,16.27
2018-06-09T04:32:28.527Z,18.00
2018-06-09T04:34:56.837Z,17.43
2018-06-09T04:37:25.209Z,17.63
2018-06-09T04:39:53.628Z,19.97
2018-06-09T04:42:21.914Z,19.47
2018-06-09T04:44:50.233Z,20.77
2018-06-09T04:47:18.506Z,19.93
2018-06-09T04:49:46.833Z,21.30
2018-06-09T04:52:15.150Z,22.77
2018-06-09T04:54:43.445Z,22.27
2018-06-09T04:57:11.768Z,21.47
2018-06-09T04:59:40.095Z,21.47
2018-06-09T05:02:08.408Z,24.27
2018-06-09T05:04:36.758Z,24.40
2018-06-09T05:07:05.166Z,21.80
2018-06-09T05:09:33.554Z,21.33
2018-06-09T05:12:01.885Z,19.77
2018-06-09T05:14:30.170Z,22.03
2018-06-09T05:16:58.518Z,23.90
2018-06-09T05:19:26.819Z,20.48
2018-06-09T05:21:55.144Z,20.05
2018-06-09T05:24:23.462Z,17.82
2018-06-09T05:26:51.526Z,18.32
2018-06-09T05:29:19.845Z,17.25
2018-06-09T05:31:48.163Z,18.42
2018-06-09T05:34:16.504Z,16.82
2018-06-09T05:36:44.872Z,16.60
2018-06-09T05:39:13.239Z,16.65
2018-06-09T05:41:41.613Z,16.05
2018-06-09T05:44:09.923Z,16.02
2018-06-09T05:46:38.304Z,16.32
2018-06-09T05:49:07.763Z,15.85
2018-06-09T05:51:36.105Z,16.48
2018-06-09T05:54:04.497Z,17.15
2018-06-09T05:56:32.818Z,18.27
2018-06-09T05:59:01.217Z,16.57
2018-06-09T06:01:29.525Z,16.42
2018-06-09T06:03:57.889Z,14.53
2018-06-09T06:06:26.210Z,15.43
2018-06-09T06:08:54.641Z,14.15
2018-06-09T06:11:23.093Z,15.48
2018-06-09T06:13:51.497Z,15.45
2018-06-09T06:16:19.842Z,14.60
2018-06-09T06:18:48.197Z,15.05
2018-06-09T06:21:16.495Z,14.30
2018-06-09T06:23:44.833Z,14.38
2018-06-09T06:26:13.170Z,14.90
2018-06-09T06:28:41.517Z,13.78
2018-06-09T06:31:09.848Z,13.32
2018-06-09T06:33:38.281Z,14.83
2018-06-09T06:36:06.661Z,14.50
2018-06-09T06:38:35.064Z,14.38
2018-06-09T06:41:03.587Z,12.03
2018-06-09T06:43:31.931Z,14.95
2018-06-09T06:46:00.220Z,12.45
2018-06-09T06:48:28.545Z,13.20
2018-06-09T06:50:56.926Z,12.23
2018-06-09T06:53:25.319Z,12.88
2018-06-09T06:55:53.701Z,11.73
2018-06-09T06:58:21.998Z,12.45
2018-06-09T07:00:50.307Z,11.28
2018-06-09T07:03:18.643Z,13.62
2018-06-09T07:05:46.975Z,12.23
2018-06-09T07:08:15.409Z,13.13
2018-06-09T07:10:43.772Z,12.13
2018-06-09T07:13:12.085Z,12.25
2018-06-09T07:15:40.434Z,12.47
2018-06-09T07:18:08.839Z,12.07
2018-06-09T07:20:37.235Z,13.50
2018-06-09T07:23:05.318Z,13.48
2018-06-09T07:25:33.648Z,11.80
2018-06-09T07:28:02.162Z,12.18
2018-06-09T07:30:30.493Z,12.78
2018-06-09T07:32:58.905Z,12.37
2018-06-09T07:35:27.232Z,10.78
2018-06-09T07:37:55.553Z,12.13
2018-06-09T07:40:23.950Z,11.55
2018-06-09T07:42:52.314Z,12.50
2018-06-09T07:45:20.693Z,10.53
2018-06-09T07:47:49.051Z,11.63
2018-06-09T07:50:17.488Z,11.95
2018-06-09T07:52:46.088Z,11.80
2018-06-09T07:55:14.454Z,10.40
2018-06-09T07:57:42.806Z,12.13
2018-06-09T08:00:11.125Z,11.20
2018-06-09T08:02:39.517Z,10.40
2018-06-09T08:05:07.926Z,10.95
2018-06-09T08:07:36.281Z,10.35
2018-06-09T08:10:04.646Z,10.70
2018-06-09T08:12:32.934Z,10.38
2018-06-09T08:15:01.272Z,11.20
2018-06-09T08:17:29.546Z,9.25
2018-06-09T08:19:57.893Z,8.63
2018-06-09T08:22:26.209Z,9.58
2018-06-09T08:24:54.574Z,8.43
2018-06-09T08:27:22.894Z,8.60
2018-06-09T08:29:51.161Z,8.48
2018-06-09T08:32:19.485Z,7.28
2018-06-09T08:34:47.760Z,7.85
2018-06-09T08:37:16.076Z,7.65
2018-06-09T08:39:44.519Z,7.37
2018-06-09T08:42:12.918Z,7.83
2018-06-09T08:44:41.215Z,7.83
2018-06-09T08:47:09.579Z,7.92
2018-06-09T08:49:37.909Z,7.15
2018-06-09T08:52:06.173Z,7.25
2018-06-09T08:54:34.498Z,7.22
2018-06-09T08:57:02.815Z,7.87
2018-06-09T08:59:31.093Z,7.78
2018-06-09T09:01:59.440Z,9.43
2018-06-09T09:04:27.864Z,9.63
2018-06-09T09:06:56.171Z,8.35
2018-06-09T09:09:24.506Z,8.15
2018-06-09T09:11:52.770Z,7.05
2018-06-09T09:14:21.045Z,7.08
2018-06-09T09:16:49.375Z,7.50
2018-06-09T09:19:17.648Z,6.97
2018-06-09T09:21:45.740Z,7.10
2018-06-09T09:24:14.066Z,7.30
2018-06-09T09:26:42.513Z,7.53
2018-06-09T09:29:10.850Z,6.97
2018-06-09T09:31:39.323Z,7.35
2018-06-09T09:34:07.775Z,7.35
2018-06-09T09:36:36.123Z,7.47
2018-06-09T09:39:07.652Z,9.20
2018-06-09T09:41:35.849Z,8.18
2018-06-09T09:44:04.410Z,7.20
2018-06-09T09:46:32.705Z,6.92
2018-06-09T09:49:01.051Z,8.43
2018-06-09T09:51:29.379Z,7.83
2018-06-09T09:53:57.729Z,8.93
2018-06-09T09:56:26.163Z,8.38
2018-06-09T09:58:54.532Z,8.20
2018-06-09T10:01:22.888Z,43.70
2018-06-09T10:03:51.226Z,9.73
2018-06-09T10:06:19.285Z,8.20
2018-06-09T10:08:47.667Z,8.53
2018-06-09T10:11:15.787Z,8.90
2018-06-09T10:13:44.133Z,7.60
2018-06-09T10:16:12.450Z,7.95
2018-06-09T10:18:40.725Z,7.78
2018-06-09T10:21:09.051Z,9.30
2018-06-09T10:23:37.353Z,9.40
2018-06-09T10:26:05.759Z,8.30
2018-06-09T10:28:34.082Z,7.75
2018-06-09T10:31:08.714Z,8.88
2018-06-09T10:33:37.047Z,8.23
2018-06-09T10:36:05.407Z,8.65
2018-06-09T10:38:33.725Z,8.20
2018-06-09T10:41:02.041Z,8.28
2018-06-09T10:43:30.359Z,8.15
2018-06-09T10:45:58.723Z,8.98
2018-06-09T10:48:27.106Z,8.45
2018-06-09T10:50:55.572Z,8.78
2018-06-09T10:53:23.930Z,8.10
2018-06-09T10:55:52.261Z,8.20
2018-06-09T10:58:20.570Z,7.33
2018-06-09T11:00:48.898Z,8.10
2018-06-09T11:03:17.251Z,8.80
2018-06-09T11:05:45.512Z,8.53
2018-06-09T11:08:13.798Z,8.63
2018-06-09T11:10:42.115Z,9.83
2018-06-09T11:13:10.446Z,12.45
2018-06-09T11:15:38.720Z,8.60
2018-06-09T11:18:07.034Z,9.60
2018-06-09T11:20:35.359Z,27.65
2018-06-09T11:23:03.731Z,9.98
2018-06-09T11:25:32.042Z,8.73
2018-06-09T11:28:00.437Z,8.13
2018-06-09T11:30:28.738Z,7.78
2018-06-09T11:32:57.046Z,13.20
2018-06-09T11:35:25.369Z,12.97
2018-06-09T11:37:53.714Z,15.30
2018-06-09T11:40:22.041Z,9.57
2018-06-09T11:42:50.364Z,7.43
2018-06-09T11:45:18.676Z,10.07
2018-06-09T11:47:46.977Z,9.87
2018-06-09T11:50:15.271Z,12.70
2018-06-09T11:52:43.357Z,12.83
2018-06-09T11:55:11.705Z,11.97
2018-06-09T11:57:40.049Z,11.50
2018-06-09T12:00:08.449Z,8.73
2018-06-09T12:02:36.782Z,11.57
2018-06-09T12:05:05.255Z,10.43
2018-06-09T12:07:33.585Z,12.83
2018-06-09T12:10:01.878Z,13.40
2018-06-09T12:12:30.152Z,12.80
2018-06-09T12:14:58.230Z,13.90
2018-06-09T12:17:26.580Z,11.87
2018-06-09T12:19:54.927Z,11.40
2018-06-09T12:22:23.326Z,10.77
2018-06-09T12:24:51.763Z,13.20
2018-06-09T12:27:20.070Z,13.83
2018-06-09T12:29:48.413Z,12.20
2018-06-09T12:32:16.768Z,14.97
2018-06-09T12:34:45.132Z,13.17
2018-06-09T12:37:13.521Z,13.47
2018-06-09T12:39:41.872Z,17.17
2018-06-09T12:42:10.225Z,14.20
2018-06-09T12:44:38.646Z,11.03
2018-06-09T12:47:06.932Z,14.83
2018-06-09T12:49:35.327Z,12.70
2018-06-09T12:52:03.714Z,13.30
2018-06-09T12:54:32.176Z,13.27
2018-06-09T12:57:00.501Z,11.57
2018-06-09T12:59:28.950Z,9.37
2018-06-09T13:01:57.306Z,10.37
2018-06-09T13:04:25.720Z,14.63
2018-06-09T13:06:54.153Z,14.33
2018-06-09T13:09:22.517Z,9.23
2018-06-09T13:11:50.874Z,11.50
2018-06-09T13:14:19.217Z,17.85
2018-06-09T13:16:47.606Z,14.45
2018-06-09T13:19:16.030Z,14.83
2018-06-09T13:21:44.473Z,12.93
2018-06-09T13:24:12.991Z,12.73
2018-06-09T13:26:41.517Z,16.05
2018-06-09T13:29:09.929Z,16.47
2018-06-09T13:31:38.349Z,16.05
2018-06-09T13:34:06.832Z,15.05
2018-06-09T13:36:35.174Z,13.68
2018-06-09T13:39:03.715Z,11.12
2018-06-09T13:41:32.039Z,17.00
2018-06-09T13:44:00.379Z,13.78
2018-06-09T13:46:28.673Z,13.85
2018-06-09T13:48:57.062Z,14.25
2018-06-09T13:51:25.472Z,12.30
2018-06-09T13:53:53.906Z,15.20
2018-06-09T13:56:22.274Z,12.18
2018-06-09T13:58:50.699Z,11.83
2018-06-09T14:01:19.090Z,14.85
2018-06-09T14:03:47.472Z,13.13
2018-06-09T14:06:15.822Z,11.97
2018-06-09T14:08:44.241Z,11.33
2018-06-09T14:11:12.598Z,11.60
2018-06-09T14:13:40.990Z,15.85
2018-06-09T14:16:09.422Z,15.32
2018-06-09T14:18:37.729Z,13.75
2018-06-09T14:21:06.066Z,12.82
2018-06-09T14:23:34.442Z,17.48
2018-06-09T14:26:03.001Z,16.20
2018-06-09T14:28:31.329Z,14.10
2018-06-09T14:30:59.648Z,13.70
2018-06-09T14:33:28.153Z,14.23
2018-06-09T14:35:56.526Z,13.85
2018-06-09T14:38:25.010Z,13.50
2018-06-09T14:40:53.376Z,13.15
2018-06-09T14:43:21.715Z,12.00
2018-06-09T14:45:50.265Z,12.58
2018-06-09T14:48:18.591Z,14.68
2018-06-09T14:50:46.940Z,13.13
2018-06-09T14:53:15.447Z,13.85
2018-06-09T14:55:43.515Z,14.93
2018-06-09T14:58:12.066Z,14.58
2018-06-09T15:00:40.427Z,12.43
2018-06-09T15:03:08.759Z,16.32
2018-06-09T15:05:37.092Z,15.30
2018-06-09T15:08:05.615Z,14.63
2018-06-09T15:10:33.991Z,17.10
2018-06-09T15:13:02.064Z,14.53
2018-06-09T15:15:30.398Z,13.53
2018-06-09T15:18:05.774Z,19.30
2018-06-09T15:20:34.125Z,16.35
2018-06-09T15:23:02.537Z,15.75
2018-06-09T15:25:30.892Z,14.23
2018-06-09T15:27:59.226Z,15.38
2018-06-09T15:30:27.578Z,13.72
2018-06-09T15:32:56.049Z,20.37
2018-06-09T15:35:24.418Z,12.82
2018-06-09T15:37:53.575Z,17.55
2018-06-09T15:40:22.019Z,13.55
2018-06-09T15:42:50.403Z,14.40
2018-06-09T15:45:27.039Z,14.95
2018-06-09T15:47:55.424Z,12.23
2018-06-09T15:50:23.845Z,15.08
2018-06-09T15:52:52.302Z,11.93
2018-06-09T15:55:20.430Z,12.90
2018-06-09T15:57:48.726Z,11.83
2018-06-09T16:00:17.228Z,12.95
2018-06-09T16:02:45.588Z,15.60
2018-06-09T16:05:13.932Z,12.78
2018-06-09T16:07:42.285Z,17.82
2018-06-09T16:10:10.751Z,11.97
2018-06-09T16:12:39.086Z,16.73
2018-06-09T16:15:07.574Z,13.58
2018-06-09T16:17:35.899Z,11.78
2018-06-09T16:20:04.398Z,15.35
2018-06-09T16:22:32.718Z,13.30
2018-06-09T16:25:01.060Z,15.55
2018-06-09T16:27:29.493Z,14.23
2018-06-09T16:29:57.873Z,14.73
2018-06-09T16:32:26.199Z,14.20
2018-06-09T16:34:54.562Z,14.75
2018-06-09T16:37:22.843Z,16.32
2018-06-09T16:39:51.205Z,17.55
2018-06-09T16:42:19.540Z,19.02
2018-06-09T16:44:47.874Z,17.35
2018-06-09T16:47:18.096Z,15.75
2018-06-09T16:49:46.665Z,20.92
2018-06-09T16:52:14.974Z,19.30
2018-06-09T16:54:43.346Z,15.75
2018-06-09T16:57:11.699Z,20.43
2018-06-09T16:59:40.030Z,17.90
2018-06-09T17:02:08.367Z,17.70
2018-06-09T17:04:36.685Z,17.77
2018-06-09T17:07:05.091Z,17.48
2018-06-09T17:09:33.429Z,18.40
2018-06-09T17:12:01.734Z,19.20
2018-06-09T17:14:30.127Z,19.30
2018-06-09T17:16:59.414Z,23.15
2018-06-09T17:19:27.757Z,20.57
2018-06-09T17:21:56.078Z,23.25
2018-06-09T17:24:24.454Z,23.18
2018-06-09T17:26:52.739Z,22.15
2018-06-09T17:29:21.059Z,21.50
2018-06-09T17:31:49.408Z,19.95
2018-06-09T17:34:17.721Z,19.48
2018-06-09T17:36:46.077Z,21.20
2018-06-09T17:39:14.358Z,17.90
2018-06-09T17:41:42.665Z,21.00
2018-06-09T17:44:11.001Z,22.62
2018-06-09T17:46:39.327Z,21.90
2018-06-09T17:49:07.674Z,18.73
2018-06-09T17:51:36.026Z,20.17
2018-06-09T17:54:04.429Z,21.30
2018-06-09T17:56:32.807Z,19.80
2018-06-09T17:59:01.152Z,20.80
2018-06-09T18:01:29.563Z,20.45
2018-06-09T18:03:57.896Z,20.52
2018-06-09T18:06:26.291Z,19.92
2018-06-09T18:08:54.610Z,20.48
2018-06-09T18:11:22.970Z,21.85
2018-06-09T18:13:51.310Z,19.73
2018-06-09T18:16:19.730Z,22.35
2018-06-09T18:18:48.331Z,22.85
2018-06-09T18:21:17.102Z,23.35
2018-06-09T18:23:45.546Z,22.37
2018-06-09T18:26:13.922Z,22.82
2018-06-09T18:28:42.302Z,21.17
2018-06-09T18:31:10.659Z,22.07
2018-06-09T18:33:39.716Z,19.98
2018-06-09T18:36:08.870Z,23.62
2018-06-09T18:38:37.330Z,24.65
2018-06-09T18:41:05.630Z,22.05
2018-06-09T18:43:33.993Z,20.40
2018-06-09T18:46:02.354Z,21.77
2018-06-09T18:48:30.708Z,22.60
2018-06-09T18:50:59.081Z,23.32
2018-06-09T18:53:27.419Z,23.57
2018-06-09T18:55:55.767Z,22.67
2018-06-09T18:58:24.129Z,23.65
2018-06-09T19:00:52.437Z,25.15
2018-06-09T19:03:20.803Z,24.45
2018-06-09T19:05:49.150Z,23.22
2018-06-09T19:08:17.605Z,23.12
2018-06-09T19:10:46.067Z,25.30
2018-06-09T19:13:14.397Z,24.32
2018-06-09T19:15:42.766Z,24.05
2018-06-09T19:18:11.189Z,24.60
2018-06-09T19:20:39.626Z,26.77
2018-06-09T19:23:08.259Z,26.65
2018-06-09T19:25:36.759Z,25.82
2018-06-09T19:28:05.455Z,25.05
2018-06-09T19:30:33.849Z,26.27
2018-06-09T19:33:02.257Z,25.35
2018-06-09T19:35:30.683Z,24.77
2018-06-09T19:37:59.087Z,24.50
2018-06-09T19:40:27.489Z,24.43
2018-06-09T19:42:55.917Z,24.33
2018-06-09T19:45:24.349Z,24.20
2018-06-09T19:47:52.713Z,23.57
2018-06-09T19:50:21.156Z,26.20
2018-06-09T19:52:49.543Z,25.97
2018-06-09T19:55:17.954Z,25.15
2018-06-09T19:57:46.341Z,25.33
2018-06-09T20:00:14.823Z,25.73
2018-06-09T20:02:43.205Z,27.10
2018-06-09T20:05:11.606Z,25.40
2018-06-09T20:07:39.933Z,27.23
2018-06-09T20:10:08.273Z,29.50
2018-06-09T20:12:36.679Z,29.30
2018-06-09T20:15:05.837Z,25.10
2018-06-09T20:17:34.193Z,26.57
2018-06-09T20:20:02.279Z,25.97
2018-06-09T20:22:30.607Z,29.10
2018-06-09T20:24:58.967Z,29.30
2018-06-09T20:27:27.266Z,29.43
2018-06-09T20:29:55.688Z,18.63
2018-06-09T20:32:24.051Z,16.93
2018-06-09T20:34:52.392Z,14.13
2018-06-09T20:37:20.809Z,12.83
2018-06-09T20:39:49.202Z,12.97
2018-06-09T20:42:17.513Z,12.17
2018-06-09T20:44:46.705Z,12.63
2018-06-09T20:47:21.619Z,10.33
2018-06-09T20:49:49.984Z,11.33
2018-06-09T20:52:18.303Z,11.70
2018-06-09T20:54:46.850Z,13.37
2018-06-09T20:57:15.150Z,13.47
2018-06-09T20:59:43.556Z,12.83
2018-06-09T21:02:11.971Z,14.23
2018-06-09T21:04:40.351Z,11.93
2018-06-09T21:07:09.572Z,11.77
2018-06-09T21:09:37.969Z,12.63
2018-06-09T21:12:06.384Z,12.80
2018-06-09T21:14:34.774Z,12.80
2018-06-09T21:17:03.171Z,15.23
2018-06-09T21:19:31.641Z,9.77
2018-06-09T21:22:00.026Z,14.57
2018-06-09T21:24:28.408Z,13.33
2018-06-09T21:27:02.154Z,11.53
2018-06-09T21:29:38.690Z,14.30
2018-06-09T21:32:10.186Z,12.20
2018-06-09T21:34:55.293Z,13.47
2018-06-09T21:37:29.089Z,14.23
2018-06-09T21:40:01.521Z,14.03
2018-06-09T21:42:33.810Z,9.73
2018-06-09T21:45:09.180Z,10.80
2018-06-09T21:47:37.530Z,14.10
2018-06-09T21:50:05.989Z,16.23
2018-06-09T21:52:34.346Z,14.27
2018-06-09T21:55:02.659Z,14.17
2018-06-09T21:57:31.031Z,11.03
2018-06-09T21:59:59.477Z,11.03
2018-06-09T22:02:27.917Z,13.00
2018-06-09T22:04:56.774Z,14.70
2018-06-09T22:07:25.169Z,9.93
2018-06-09T22:09:53.556Z,15.73
2018-06-09T22:12:21.876Z,15.03
2018-06-09T22:14:50.321Z,11.43
2018-06-09T22:17:18.755Z,11.80
2018-06-09T22:19:47.133Z,13.07
2018-06-09T22:22:15.449Z,13.27
2018-06-09T22:24:43.766Z,15.93
2018-06-09T22:27:12.152Z,11.87
2018-06-09T22:29:40.465Z,17.93
2018-06-09T22:32:08.854Z,12.73
2018-06-09T22:34:43.943Z,15.70
2018-06-09T22:37:12.577Z,10.37
2018-06-09T22:39:40.901Z,13.10
2018-06-09T22:42:15.691Z,15.60
2018-06-09T22:44:43.760Z,12.67
2018-06-09T22:47:12.134Z,12.00
2018-06-09T22:49:40.455Z,12.03
2018-06-09T22:52:08.896Z,17.30
2018-06-09T22:54:37.285Z,11.80
2018-06-09T22:57:05.762Z,12.50
2018-06-09T22:59:34.038Z,11.67
2018-06-09T23:02:02.482Z,13.67
2018-06-09T23:04:30.945Z,14.17
2018-06-09T23:06:59.370Z,12.07
2018-06-09T23:09:27.646Z,16.33
2018-06-09T23:11:56.227Z,10.50
2018-06-09T23:14:24.248Z,13.57
2018-06-09T23:16:52.587Z,12.47
2018-06-09T23:19:20.920Z,13.00
2018-06-09T23:21:49.255Z,14.80
2018-06-09T23:24:17.621Z,16.67
2018-06-09T23:26:45.965Z,16.13
2018-06-09T23:29:14.306Z,8.57
2018-06-09T23:31:42.641Z,13.53
2018-06-09T23:34:11.027Z,18.40
2018-06-09T23:36:39.470Z,11.77
2018-06-09T23:39:07.861Z,14.27
2018-06-09T23:41:36.235Z,10.73
2018-06-09T23:44:04.572Z,12.90
2018-06-09T23:46:32.890Z,11.63
2018-06-09T23:49:01.258Z,13.20
2018-06-09T23:51:29.587Z,12.13
2018-06-09T23:53:57.939Z,11.90
2018-06-09T23:56:26.293Z,15.80
2018-06-09T23:58:54.601Z,13.80
